Terminal Aerodrome Forecast
Issued by NWS

Home | Current Version | Previous Version | Text Only | Print | Product List | Glossary On
Versions: 1 2 3 4 5 6 7 8 9 10 11 12
000
FTUS46 KSEW 230522
TAFCLM
TAF
KCLM 230522Z 2306/2406 25005KT P6SM SCT060
     FM231300 23006KT P6SM SCT015
     FM231900 06004KT P6SM SCT030 SCT050
     FM240200 24005KT P6SM SCT050 SCT250=

USA.gov is the U.S. government's official web portal to all federal, state and local government web resources and services.